createdAt,value
2019-02-12T00:01:23.384Z,66.72
2019-02-12T00:03:54.057Z,66.72
2019-02-12T00:06:24.709Z,67.21
2019-02-12T00:08:55.601Z,67.51
2019-02-12T00:11:26.491Z,67.35
2019-02-12T00:13:58.048Z,67.61
2019-02-12T00:16:28.578Z,67.99
2019-02-12T00:18:59.582Z,68.30
2019-02-12T00:21:30.835Z,68.30
2019-02-12T00:24:01.799Z,68.67
2019-02-12T00:26:32.916Z,69.73
2019-02-12T00:29:03.649Z,69.86
2019-02-12T00:31:34.627Z,69.86
2019-02-12T00:34:05.619Z,70.22
2019-02-12T00:36:36.521Z,70.75
2019-02-12T00:39:07.629Z,71.26
2019-02-12T00:41:38.371Z,71.77
2019-02-12T00:44:09.301Z,72.36
2019-02-12T00:46:39.740Z,72.75
2019-02-12T00:49:10.863Z,72.75
2019-02-12T00:51:41.829Z,72.76
2019-02-12T00:54:12.847Z,72.76
2019-02-12T00:56:43.190Z,72.95
2019-02-12T00:59:14.931Z,73.33
2019-02-12T01:01:46.320Z,73.44
2019-02-12T01:04:16.792Z,73.78
2019-02-12T01:06:48.275Z,73.78
2019-02-12T01:09:18.781Z,73.38
2019-02-12T01:11:49.777Z,73.23
2019-02-12T01:14:21.201Z,72.88
2019-02-12T01:16:52.314Z,72.88
2019-02-12T01:19:23.247Z,72.89
2019-02-12T01:21:54.217Z,72.65
2019-02-12T01:24:25.092Z,72.65
2019-02-12T01:26:56.060Z,72.00
2019-02-12T01:29:26.872Z,71.33
2019-02-12T01:31:57.944Z,70.91
2019-02-12T01:34:28.915Z,70.91
2019-02-12T01:36:59.817Z,70.30
2019-02-12T01:39:30.619Z,69.85
2019-02-12T01:42:01.642Z,69.30
2019-02-12T01:44:32.607Z,69.30
2019-02-12T01:47:02.959Z,69.67
2019-02-12T01:49:34.079Z,69.34
2019-02-12T01:52:05.101Z,69.12
2019-02-12T01:54:35.975Z,69.12
2019-02-12T01:57:07.101Z,69.00
2019-02-12T01:59:38.118Z,68.61
2019-02-12T02:02:09.119Z,68.27
2019-02-12T02:04:40.071Z,67.81
2019-02-12T02:07:11.237Z,67.81
2019-02-12T02:09:41.594Z,67.15
2019-02-12T02:12:12.085Z,67.04
2019-02-12T02:14:43.331Z,66.91
2019-02-12T02:17:15.144Z,66.79
2019-02-12T02:19:46.322Z,66.51
2019-02-12T02:22:17.253Z,66.51
2019-02-12T02:24:47.636Z,66.17
2019-02-12T02:27:19.233Z,65.98
2019-02-12T02:29:50.247Z,65.71
2019-02-12T02:32:21.191Z,65.78
2019-02-12T02:34:52.202Z,65.85
2019-02-12T02:37:23.197Z,65.37
2019-02-12T02:39:54.189Z,64.89
2019-02-12T02:42:25.533Z,63.26
2019-02-12T02:44:56.043Z,63.26
2019-02-12T02:47:27.058Z,62.54
2019-02-12T02:49:57.968Z,63.02
2019-02-12T02:52:28.448Z,62.55
2019-02-12T02:54:59.326Z,62.87
2019-02-12T02:57:30.295Z,63.41
2019-02-12T03:00:01.482Z,64.37
2019-02-12T03:02:32.763Z,64.37
2019-02-12T03:05:05.432Z,64.67
2019-02-12T03:07:37.298Z,64.64
2019-02-12T03:10:08.741Z,64.50
2019-02-12T03:12:39.410Z,64.84
2019-02-12T03:15:10.672Z,64.84
2019-02-12T03:17:41.384Z,64.08
2019-02-12T03:20:12.324Z,64.08
2019-02-12T03:22:43.524Z,63.71
2019-02-12T03:25:14.498Z,63.68
2019-02-12T03:27:46.440Z,63.56
2019-02-12T03:30:19.451Z,62.58
2019-02-12T03:32:50.411Z,62.58
2019-02-12T03:35:21.530Z,62.58
2019-02-12T03:37:52.461Z,62.31
2019-02-12T03:40:23.669Z,61.57
2019-02-12T03:42:54.458Z,61.57
2019-02-12T03:45:25.514Z,62.18
2019-02-12T03:47:56.530Z,61.36
2019-02-12T03:50:29.539Z,61.36
2019-02-12T03:53:01.587Z,60.74
2019-02-12T03:55:34.586Z,58.31
2019-02-12T03:58:05.510Z,57.80
2019-02-12T04:00:36.546Z,57.80
2019-02-12T04:03:08.460Z,56.97
2019-02-12T04:05:41.709Z,55.85
2019-02-12T04:08:12.562Z,54.21
2019-02-12T04:10:43.477Z,53.72
2019-02-12T04:13:14.747Z,53.66
2019-02-12T04:15:45.809Z,53.66
2019-02-12T04:18:16.718Z,53.76
2019-02-12T04:20:47.680Z,53.57
2019-02-12T04:23:18.704Z,53.57
2019-02-12T04:25:49.537Z,53.75
2019-02-12T04:28:22.456Z,53.52
2019-02-12T04:30:54.796Z,53.30
2019-02-12T04:33:25.736Z,53.54
2019-02-12T04:35:58.822Z,53.54
2019-02-12T04:38:29.864Z,53.11
2019-02-12T04:41:01.894Z,52.98
2019-02-12T04:43:34.867Z,53.28
2019-02-12T04:46:05.737Z,53.23
2019-02-12T04:48:36.797Z,53.23
2019-02-12T04:51:07.723Z,53.20
2019-02-12T04:53:38.898Z,53.02
2019-02-12T04:56:09.531Z,52.44
2019-02-12T04:58:40.837Z,52.44
2019-02-12T05:01:11.888Z,52.19
2019-02-12T05:03:43.772Z,52.19
2019-02-12T05:06:16.940Z,51.48
2019-02-12T05:09:24.971Z,51.57
2019-02-12T05:12:05.442Z,51.57
2019-02-12T05:14:37.890Z,51.85
2019-02-12T05:17:09.003Z,51.92
2019-02-12T05:19:39.890Z,51.98
2019-02-12T05:22:10.825Z,52.54
2019-02-12T05:24:41.794Z,53.07
2019-02-12T05:27:12.685Z,53.07
2019-02-12T05:29:43.672Z,53.89
2019-02-12T05:32:16.063Z,54.50
2019-02-12T05:34:47.012Z,54.89
2019-02-12T05:37:17.919Z,55.86
2019-02-12T05:39:49.616Z,56.36
2019-02-12T05:42:20.011Z,56.32
2019-02-12T05:44:50.934Z,56.52
2019-02-12T05:47:21.862Z,56.78
2019-02-12T05:49:52.627Z,56.90
2019-02-12T05:52:23.041Z,57.15
2019-02-12T05:54:54.585Z,57.43
2019-02-12T05:57:25.188Z,56.67
2019-02-12T05:59:56.184Z,56.63
2019-02-12T06:02:27.125Z,55.92
2019-02-12T06:04:58.374Z,55.92
2019-02-12T06:07:29.191Z,56.21
2019-02-12T06:10:00.272Z,56.00
2019-02-12T06:12:31.150Z,56.00
2019-02-12T06:15:02.234Z,55.89
2019-02-12T06:17:33.235Z,55.92
2019-02-12T06:20:04.215Z,55.88
2019-02-12T06:22:35.254Z,56.09
2019-02-12T06:25:07.930Z,56.09
2019-02-12T06:27:40.298Z,55.86
2019-02-12T06:30:13.323Z,55.92
2019-02-12T06:32:43.699Z,55.92
2019-02-12T06:35:15.427Z,55.21
2019-02-12T06:37:47.299Z,55.21
2019-02-12T06:40:20.312Z,54.58
2019-02-12T06:42:54.957Z,54.45
2019-02-12T06:45:25.380Z,54.56
2019-02-12T06:47:56.306Z,54.04
2019-02-12T06:50:29.314Z,54.03
2019-02-12T06:53:00.471Z,54.53
2019-02-12T06:55:31.820Z,52.86
2019-02-12T06:58:02.516Z,52.55
2019-02-12T07:00:33.793Z,52.12
2019-02-12T07:03:11.963Z,52.12
2019-02-12T07:06:30.494Z,52.16
2019-02-12T07:09:11.245Z,51.74
2019-02-12T07:12:31.735Z,51.74
2019-02-12T07:15:26.199Z,50.97
2019-02-12T07:18:11.729Z,50.97
2019-02-12T07:21:34.221Z,50.71
2019-02-12T07:24:25.897Z,50.90
2019-02-12T07:27:52.931Z,51.50
2019-02-12T07:31:13.229Z,51.91
2019-02-12T07:34:42.745Z,51.90
2019-02-12T07:38:03.460Z,51.90
2019-02-12T07:40:57.275Z,53.19
2019-02-12T07:43:51.923Z,53.19
2019-02-12T07:47:06.792Z,52.92
2019-02-12T07:50:07.491Z,53.31
2019-02-12T07:53:12.027Z,53.52
2019-02-12T07:56:26.096Z,53.76
2019-02-12T07:59:43.929Z,54.40
2019-02-12T08:02:50.454Z,54.40
2019-02-12T08:06:03.397Z,56.24
2019-02-12T08:09:36.960Z,56.86
2019-02-12T08:12:34.459Z,59.60
2019-02-12T08:15:37.900Z,60.10
2019-02-12T08:18:38.661Z,60.10
2019-02-12T08:21:55.244Z,60.57
2019-02-12T08:24:53.460Z,61.37
2019-02-12T08:28:05.478Z,61.37
2019-02-12T08:31:28.226Z,61.89
2019-02-12T08:34:48.913Z,65.28
2019-02-12T08:37:34.265Z,65.28
2019-02-12T08:40:17.414Z,64.75
2019-02-12T08:43:30.689Z,64.51
2019-02-12T08:46:16.618Z,64.51
2019-02-12T08:49:19.056Z,63.28
2019-02-12T08:52:06.919Z,61.86
2019-02-12T08:55:06.959Z,59.85
2019-02-12T08:58:16.394Z,59.85
2019-02-12T09:01:33.034Z,58.14
2019-02-12T09:04:29.929Z,55.43
2019-02-12T09:07:42.316Z,55.43
2019-02-12T09:11:11.748Z,53.21
2019-02-12T09:14:10.396Z,53.09
2019-02-12T09:17:24.564Z,52.29
2019-02-12T09:20:50.978Z,50.68
2019-02-12T09:24:07.981Z,50.68
2019-02-12T09:27:41.149Z,51.02
2019-02-12T09:30:57.313Z,51.44
2019-02-12T09:34:07.497Z,50.93
2019-02-12T09:37:10.040Z,50.79
2019-02-12T09:40:37.535Z,50.40
2019-02-12T09:44:03.801Z,49.81
2019-02-12T09:47:30.734Z,49.54
2019-02-12T09:50:25.348Z,50.75
2019-02-12T09:53:23.262Z,49.58
2019-02-12T09:56:27.875Z,51.48
2019-02-12T09:59:43.013Z,49.87
2019-02-12T10:02:43.224Z,49.87
2019-02-12T10:05:50.067Z,50.43
2019-02-12T10:08:55.920Z,51.04
2019-02-12T10:11:46.950Z,51.26
2019-02-12T10:15:04.452Z,51.05
2019-02-12T10:18:13.703Z,51.33
2019-02-12T10:20:58.748Z,52.45
2019-02-12T10:24:19.443Z,53.16
2019-02-12T10:26:48.585Z,53.20
2019-02-12T10:29:58.900Z,54.00
2019-02-12T10:32:28.696Z,56.80
2019-02-12T10:35:01.458Z,57.81
2019-02-12T10:37:32.363Z,57.07
2019-02-12T10:40:05.553Z,57.46
2019-02-12T10:42:37.472Z,57.92
2019-02-12T10:45:10.884Z,57.82
2019-02-12T10:47:41.445Z,55.05
2019-02-12T10:50:14.048Z,54.28
2019-02-12T10:52:44.424Z,53.67
2019-02-12T10:55:15.659Z,54.06
2019-02-12T10:57:47.455Z,54.90
2019-02-12T11:00:18.480Z,54.70
2019-02-12T11:02:50.459Z,55.18
2019-02-12T11:05:21.481Z,55.23
2019-02-12T11:07:52.423Z,54.70
2019-02-12T11:10:23.364Z,54.70
2019-02-12T11:12:53.964Z,53.85
2019-02-12T11:15:25.243Z,53.63
2019-02-12T11:17:56.166Z,53.58
2019-02-12T11:20:26.638Z,53.22
2019-02-12T11:22:58.058Z,53.77
2019-02-12T11:25:28.677Z,54.21
2019-02-12T11:27:59.523Z,54.36
2019-02-12T11:30:30.754Z,55.02
2019-02-12T11:33:01.594Z,55.89
2019-02-12T11:35:32.572Z,55.89
2019-02-12T11:38:03.621Z,56.37
2019-02-12T11:40:34.633Z,56.74
2019-02-12T11:43:05.826Z,58.08
2019-02-12T11:45:36.546Z,59.42
2019-02-12T11:48:07.507Z,61.39
2019-02-12T11:50:38.517Z,61.39
2019-02-12T11:53:09.383Z,62.34
2019-02-12T11:55:41.141Z,68.12
2019-02-12T11:58:11.539Z,69.44
2019-02-12T12:00:53.491Z,69.44
2019-02-12T12:03:24.831Z,70.12
2019-02-12T12:05:56.773Z,70.94
2019-02-12T12:08:29.722Z,70.94
2019-02-12T12:11:00.858Z,71.53
2019-02-12T12:13:31.791Z,72.03
2019-02-12T12:16:02.786Z,72.40
2019-02-12T12:18:33.873Z,73.02
2019-02-12T12:21:04.942Z,72.01
2019-02-12T12:23:35.795Z,72.01
2019-02-12T12:26:06.920Z,71.87
2019-02-12T12:28:38.231Z,71.08
2019-02-12T12:31:08.782Z,70.94
2019-02-12T12:33:39.919Z,70.47
2019-02-12T12:36:10.954Z,70.47
2019-02-12T12:38:41.816Z,68.39
2019-02-12T12:41:12.964Z,68.39
2019-02-12T12:43:44.078Z,68.44
2019-02-12T12:46:14.952Z,66.81
2019-02-12T12:48:45.774Z,66.81
2019-02-12T12:51:16.802Z,66.48
2019-02-12T12:53:47.718Z,66.23
2019-02-12T12:56:18.081Z,66.46
2019-02-12T12:58:49.599Z,67.88
2019-02-12T13:01:20.748Z,67.22
2019-02-12T13:03:51.821Z,67.99
2019-02-12T13:06:22.829Z,67.99
2019-02-12T13:08:55.857Z,66.34
2019-02-12T13:11:27.092Z,65.10
2019-02-12T13:13:58.064Z,70.80
2019-02-12T13:16:29.044Z,71.68
2019-02-12T13:19:00.147Z,72.54
2019-02-12T13:21:31.083Z,72.71
2019-02-12T13:24:02.233Z,73.82
2019-02-12T13:26:34.102Z,73.82
2019-02-12T13:29:07.109Z,76.27
2019-02-12T13:31:38.224Z,77.21
2019-02-12T13:34:09.161Z,78.51
2019-02-12T13:36:40.083Z,78.72
2019-02-12T13:39:11.286Z,78.21
2019-02-12T13:41:42.200Z,78.09
2019-02-12T13:44:13.106Z,77.68
2019-02-12T13:46:44.205Z,77.66
2019-02-12T13:49:15.176Z,76.89
2019-02-12T13:51:47.272Z,77.02
2019-02-12T13:54:20.394Z,76.50
2019-02-12T13:56:53.244Z,75.52
2019-02-12T13:59:25.691Z,75.52
2019-02-12T14:01:56.188Z,72.50
2019-02-12T14:04:31.515Z,72.50
2019-02-12T14:07:04.242Z,73.94
2019-02-12T14:09:35.370Z,73.94
2019-02-12T14:12:08.278Z,73.95
2019-02-12T14:14:40.310Z,72.82
2019-02-12T14:17:13.304Z,72.22
2019-02-12T14:19:44.286Z,72.22
2019-02-12T14:22:15.311Z,72.48
2019-02-12T14:24:47.355Z,72.22
2019-02-12T14:27:20.354Z,71.42
2019-02-12T14:29:53.819Z,71.86
2019-02-12T14:32:25.333Z,72.30
2019-02-12T14:34:56.534Z,72.30
2019-02-12T14:37:27.412Z,72.61
2019-02-12T14:39:58.350Z,72.38
2019-02-12T14:42:31.456Z,72.38
2019-02-12T14:45:02.385Z,70.91
2019-02-12T14:47:33.453Z,70.59
2019-02-12T14:50:04.810Z,70.59
2019-02-12T14:52:35.501Z,69.63
2019-02-12T14:55:06.606Z,69.63
2019-02-12T14:57:37.583Z,69.31
2019-02-12T15:00:10.947Z,67.28
2019-02-12T15:02:42.540Z,67.28
2019-02-12T15:05:14.605Z,63.99
2019-02-12T15:07:45.043Z,63.99
2019-02-12T15:10:15.734Z,63.32
2019-02-12T15:12:47.599Z,61.29
2019-02-12T15:15:20.591Z,61.08
2019-02-12T15:17:53.679Z,61.08
2019-02-12T15:20:25.694Z,61.35
2019-02-12T15:22:56.601Z,60.94
2019-02-12T15:25:29.873Z,60.94
2019-02-12T15:28:00.754Z,61.70
2019-02-12T15:30:31.649Z,61.70
2019-02-12T15:33:02.627Z,61.43
2019-02-12T15:35:33.765Z,61.53
2019-02-12T15:38:04.583Z,61.47
2019-02-12T15:40:35.753Z,61.51
2019-02-12T15:43:06.752Z,60.87
2019-02-12T15:45:37.696Z,61.74
2019-02-12T15:48:08.818Z,62.55
2019-02-12T15:50:39.755Z,64.41
2019-02-12T15:53:11.078Z,64.41
2019-02-12T15:55:42.415Z,65.62
2019-02-12T15:58:15.734Z,65.62
2019-02-12T16:00:47.918Z,65.54
2019-02-12T16:03:20.542Z,66.10
2019-02-12T16:05:51.799Z,66.28
2019-02-12T16:08:24.779Z,66.48
2019-02-12T16:10:57.052Z,66.98
2019-02-12T16:13:29.913Z,67.54
2019-02-12T16:16:00.800Z,68.13
2019-02-12T16:18:31.163Z,68.37
2019-02-12T16:21:02.975Z,68.58
2019-02-12T16:23:34.000Z,68.60
2019-02-12T16:26:05.984Z,69.03
2019-02-12T16:28:37.986Z,69.07
2019-02-12T16:31:08.877Z,69.50
2019-02-12T16:33:39.993Z,69.50
2019-02-12T16:36:11.051Z,70.06
2019-02-12T16:38:41.863Z,70.45
2019-02-12T16:41:13.177Z,70.75
2019-02-12T16:43:44.037Z,70.99
2019-02-12T16:46:20.256Z,70.86
2019-02-12T16:48:52.149Z,70.75
2019-02-12T16:51:25.213Z,71.28
2019-02-12T16:53:56.973Z,71.88
2019-02-12T16:56:29.141Z,72.40
2019-02-12T16:59:03.558Z,72.38
2019-02-12T17:01:35.106Z,72.29
2019-02-12T17:04:06.140Z,72.89
2019-02-12T17:06:37.305Z,73.22
2019-02-12T17:09:08.121Z,72.65
2019-02-12T17:11:39.120Z,73.01
2019-02-12T17:14:10.237Z,73.36
2019-02-12T17:16:41.139Z,73.73
2019-02-12T17:19:12.075Z,73.28
2019-02-12T17:21:43.127Z,73.47
2019-02-12T17:24:14.282Z,73.89
2019-02-12T17:26:44.841Z,73.94
2019-02-12T17:29:16.268Z,74.60
2019-02-12T17:31:47.363Z,74.06
2019-02-12T17:34:18.128Z,74.35
2019-02-12T17:36:50.232Z,73.88
2019-02-12T17:39:24.177Z,73.52
2019-02-12T17:41:57.213Z,72.71
2019-02-12T17:44:28.322Z,71.82
2019-02-12T17:47:01.330Z,71.71
2019-02-12T17:49:32.349Z,71.12
2019-02-12T17:52:03.289Z,70.47
2019-02-12T17:54:34.224Z,70.78
2019-02-12T17:57:05.382Z,70.33
2019-02-12T17:59:36.334Z,70.24
2019-02-12T18:02:08.411Z,70.39
2019-02-12T18:04:41.384Z,70.22
2019-02-12T18:07:12.313Z,70.28
2019-02-12T18:09:43.648Z,70.24
2019-02-12T18:12:14.473Z,70.64
2019-02-12T18:14:45.017Z,70.66
2019-02-12T18:17:17.448Z,70.32
2019-02-12T18:19:48.478Z,70.93
2019-02-12T18:22:21.939Z,70.58
2019-02-12T18:24:53.947Z,70.36
2019-02-12T18:27:26.447Z,70.48
2019-02-12T18:29:57.622Z,70.72
2019-02-12T18:32:28.388Z,70.76
2019-02-12T18:35:01.512Z,70.90
2019-02-12T18:37:32.411Z,71.13
2019-02-12T18:40:03.642Z,71.29
2019-02-12T18:42:34.545Z,71.05
2019-02-12T18:45:06.058Z,71.07
2019-02-12T18:47:37.649Z,71.74
2019-02-12T18:50:09.507Z,71.25
2019-02-12T18:52:40.188Z,70.63
2019-02-12T18:55:11.740Z,70.67
2019-02-12T18:57:44.553Z,70.72
2019-02-12T19:00:18.735Z,70.62
2019-02-12T19:02:51.674Z,70.30
2019-02-12T19:05:23.318Z,69.92
2019-02-12T19:07:53.724Z,69.99
2019-02-12T19:10:24.099Z,69.20
2019-02-12T19:12:54.627Z,69.20
2019-02-12T19:15:27.254Z,69.50
2019-02-12T19:18:01.910Z,68.99
2019-02-12T19:20:34.754Z,68.52
2019-02-12T19:23:05.805Z,68.13
2019-02-12T19:25:38.387Z,68.21
2019-02-12T19:28:10.709Z,67.55
2019-02-12T19:30:42.060Z,67.27
2019-02-12T19:33:12.871Z,67.12
2019-02-12T19:35:44.650Z,67.46
2019-02-12T19:38:17.781Z,67.13
2019-02-12T19:40:49.817Z,67.88
2019-02-12T19:43:22.742Z,68.47
2019-02-12T19:45:53.740Z,68.86
2019-02-12T19:48:24.821Z,69.10
2019-02-12T19:50:55.256Z,69.53
2019-02-12T19:53:26.851Z,69.69
2019-02-12T19:55:58.029Z,69.69
2019-02-12T19:58:28.814Z,69.93
2019-02-12T20:00:59.925Z,69.88
2019-02-12T20:03:30.874Z,70.31
2019-02-12T20:06:01.723Z,70.41
2019-02-12T20:08:32.904Z,70.92
2019-02-12T20:11:03.746Z,71.30
2019-02-12T20:13:34.727Z,71.88
2019-02-12T20:16:05.915Z,72.14
2019-02-12T20:18:37.016Z,72.51
2019-02-12T20:21:08.073Z,72.89
2019-02-12T20:23:38.871Z,73.26
2019-02-12T20:26:09.989Z,73.53
2019-02-12T20:28:40.875Z,73.38
2019-02-12T20:31:11.953Z,73.61
2019-02-12T20:33:42.827Z,73.86
2019-02-12T20:36:14.017Z,73.97
2019-02-12T20:38:44.675Z,74.14
2019-02-12T20:41:15.882Z,74.08
2019-02-12T20:43:46.804Z,73.92
2019-02-12T20:46:17.822Z,73.90
2019-02-12T20:48:48.577Z,73.98
2019-02-12T20:51:19.140Z,73.92
2019-02-12T20:53:50.313Z,73.66
2019-02-12T20:56:21.237Z,74.16
2019-02-12T20:58:52.305Z,74.11
2019-02-12T21:01:23.227Z,74.69
2019-02-12T21:03:54.262Z,74.48
2019-02-12T21:06:25.101Z,74.72
2019-02-12T21:08:56.098Z,74.82
2019-02-12T21:11:27.232Z,75.12
2019-02-12T21:13:57.964Z,74.35
2019-02-12T21:16:29.004Z,74.55
2019-02-12T21:18:59.691Z,74.45
2019-02-12T21:21:31.862Z,74.51
2019-02-12T21:24:04.232Z,74.72
2019-02-12T21:26:35.304Z,74.65
2019-02-12T21:29:06.203Z,74.25
2019-02-12T21:31:38.075Z,74.53
2019-02-12T21:34:11.337Z,75.19
2019-02-12T21:36:45.037Z,74.90
2019-02-12T21:39:19.520Z,74.57
2019-02-12T21:41:51.401Z,74.49
2019-02-12T21:44:24.277Z,74.64
2019-02-12T21:46:55.408Z,74.42
2019-02-12T21:49:26.353Z,74.50
2019-02-12T21:51:58.950Z,74.73
2019-02-12T21:54:31.540Z,74.64
2019-02-12T21:57:02.379Z,74.61
2019-02-12T21:59:33.452Z,74.24
2019-02-12T22:02:04.359Z,74.03
2019-02-12T22:04:37.535Z,74.02
2019-02-12T22:07:09.571Z,74.14
2019-02-12T22:09:42.509Z,73.58
2019-02-12T22:12:13.468Z,73.80
2019-02-12T22:14:44.414Z,73.84
2019-02-12T22:17:15.557Z,74.18
2019-02-12T22:19:45.957Z,74.25
2019-02-12T22:22:17.428Z,74.53
2019-02-12T22:24:48.588Z,74.00
2019-02-12T22:27:19.642Z,73.91
2019-02-12T22:29:51.577Z,73.39
2019-02-12T22:32:21.954Z,72.96
2019-02-12T22:34:54.621Z,72.31
2019-02-12T22:37:26.649Z,72.35
2019-02-12T22:39:57.545Z,72.31
2019-02-12T22:42:28.513Z,71.90
2019-02-12T22:45:00.565Z,71.94
2019-02-12T22:47:33.496Z,71.49
2019-02-12T22:50:04.453Z,70.89
2019-02-12T22:52:35.337Z,70.87
2019-02-12T22:55:06.382Z,70.72
2019-02-12T22:57:36.759Z,70.05
2019-02-12T23:00:15.054Z,69.66
2019-02-12T23:02:45.428Z,69.54
2019-02-12T23:05:15.773Z,69.54
2019-02-12T23:07:48.818Z,70.16
2019-02-12T23:10:20.805Z,70.35
2019-02-12T23:12:51.662Z,70.46
2019-02-12T23:15:22.691Z,70.43
2019-02-12T23:17:54.680Z,70.25
2019-02-12T23:20:27.632Z,70.21
2019-02-12T23:22:58.791Z,70.27
2019-02-12T23:25:31.800Z,70.18
2019-02-12T23:28:03.174Z,70.35
2019-02-12T23:30:33.749Z,70.48
2019-02-12T23:33:04.747Z,70.44
2019-02-12T23:35:35.756Z,70.16
2019-02-12T23:38:06.837Z,70.19
2019-02-12T23:40:37.415Z,69.98
2019-02-12T23:43:07.762Z,70.34
2019-02-12T23:45:39.282Z,70.08
2019-02-12T23:48:09.869Z,69.92
2019-02-12T23:50:41.172Z,70.07
2019-02-12T23:53:11.815Z,70.22
2019-02-12T23:55:42.939Z,70.72
2019-02-12T23:58:14.071Z,71.11
